<?xml version="1.0" encoding="UTF-8" standalone="no" ?>
<gpx xmlns="http://www.topografix.com/GPX/1/1" xmlns:xsi="http://www.w3.org/2001/XMLSchema-instance" xsi:schemaLocation="http://www.topografix.com/GPX/1/1 http://www.topografix.com/GPX/1/1/gpx.xsd" version="1.1" creator="VisuGPX - https://www.visugpx.com">
  <metadata>
    <name>Ligne 10 Aéroport - Rive</name>
  </metadata>
  <trk>
    <name><![CDATA[ligne 10 Aéroport - Rive_aller 10]]></name>
    <trkseg>
      <trkpt lat="46.23091" lon="6.10968">
        <ele>426.4</ele>
        <time>2020-05-04T12:49:54.000Z</time>
      </trkpt>
      <trkpt lat="46.23101" lon="6.10953">
        <ele>426.9</ele>
        <time>2020-05-04T12:49:58.517Z</time>
      </trkpt>
      <trkpt lat="46.23103" lon="6.10946">
        <ele>427</ele>
        <time>2020-05-04T12:49:59.908Z</time>
      </trkpt>
      <trkpt lat="46.23102" lon="6.10934">
        <ele>427</ele>
        <time>2020-05-04T12:50:01.653Z</time>
      </trkpt>
      <trkpt lat="46.23098" lon="6.10923">
        <ele>427.1</ele>
        <time>2020-05-04T12:50:03.754Z</time>
      </trkpt>
      <trkpt lat="46.23072" lon="6.10885">
        <ele>426.3</ele>
        <time>2020-05-04T12:50:08.762Z</time>
      </trkpt>
      <trkpt lat="46.23012" lon="6.10797">
        <ele>426.5</ele>
        <time>2020-05-04T12:50:27.394Z</time>
      </trkpt>
      <trkpt lat="46.22979" lon="6.10746">
        <ele>425.2</ele>
        <time>2020-05-04T12:50:33.649Z</time>
      </trkpt>
      <trkpt lat="46.22956" lon="6.10714">
        <ele>424.5</ele>
        <time>2020-05-04T12:50:37.953Z</time>
      </trkpt>
      <trkpt lat="46.22945" lon="6.10694">
        <ele>424.2</ele>
        <time>2020-05-04T12:50:40.490Z</time>
      </trkpt>
      <trkpt lat="46.2294" lon="6.10684">
        <ele>424</ele>
        <time>2020-05-04T12:50:41.597Z</time>
      </trkpt>
      <trkpt lat="46.22938" lon="6.10674">
        <ele>423.9</ele>
        <time>2020-05-04T12:50:42.665Z</time>
      </trkpt>
      <trkpt lat="46.22937" lon="6.10669">
        <ele>423.8</ele>
        <time>2020-05-04T12:50:43.127Z</time>
      </trkpt>
      <trkpt lat="46.22937" lon="6.10663">
        <ele>423.8</ele>
        <time>2020-05-04T12:50:44.137Z</time>
      </trkpt>
      <trkpt lat="46.22936" lon="6.10656">
        <ele>423.9</ele>
        <time>2020-05-04T12:50:45.370Z</time>
      </trkpt>
      <trkpt lat="46.22936" lon="6.10646">
        <ele>424.1</ele>
        <time>2020-05-04T12:50:47.374Z</time>
      </trkpt>
      <trkpt lat="46.22937" lon="6.10634">
        <ele>424.3</ele>
        <time>2020-05-04T12:50:49.635Z</time>
      </trkpt>
      <trkpt lat="46.22939" lon="6.10624">
        <ele>424.5</ele>
        <time>2020-05-04T12:50:51.711Z</time>
      </trkpt>
      <trkpt lat="46.2294" lon="6.10614">
        <ele>424.7</ele>
        <time>2020-05-04T12:50:53.754Z</time>
      </trkpt>
      <trkpt lat="46.22941" lon="6.10606">
        <ele>424.8</ele>
        <time>2020-05-04T12:50:55.143Z</time>
      </trkpt>
      <trkpt lat="46.22942" lon="6.10599">
        <ele>424.9</ele>
        <time>2020-05-04T12:50:56.411Z</time>
      </trkpt>
      <trkpt lat="46.22942" lon="6.10593">
        <ele>425</ele>
        <time>2020-05-04T12:50:57.614Z</time>
      </trkpt>
      <trkpt lat="46.22942" lon="6.10584">
        <ele>425.1</ele>
        <time>2020-05-04T12:50:59.143Z</time>
      </trkpt>
      <trkpt lat="46.2294" lon="6.10576">
        <ele>425.1</ele>
        <time>2020-05-04T12:51:00.307Z</time>
      </trkpt>
      <trkpt lat="46.22939" lon="6.10569">
        <ele>425.1</ele>
        <time>2020-05-04T12:51:01.421Z</time>
      </trkpt>
      <trkpt lat="46.22936" lon="6.10562">
        <ele>425.1</ele>
        <time>2020-05-04T12:51:02.615Z</time>
      </trkpt>
      <trkpt lat="46.22931" lon="6.10553">
        <ele>425</ele>
        <time>2020-05-04T12:51:03.831Z</time>
      </trkpt>
      <trkpt lat="46.22924" lon="6.10542">
        <ele>425</ele>
        <time>2020-05-04T12:51:05.958Z</time>
      </trkpt>
      <trkpt lat="46.22902" lon="6.10509">
        <ele>426.3</ele>
        <time>2020-05-04T12:51:16.763Z</time>
      </trkpt>
      <trkpt lat="46.22897" lon="6.10501">
        <ele>426.4</ele>
        <time>2020-05-04T12:51:18.625Z</time>
      </trkpt>
      <trkpt lat="46.22893" lon="6.10493">
        <ele>426.3</ele>
        <time>2020-05-04T12:51:19.715Z</time>
      </trkpt>
      <trkpt lat="46.22889" lon="6.10483">
        <ele>426.4</ele>
        <time>2020-05-04T12:51:21.620Z</time>
      </trkpt>
      <trkpt lat="46.22883" lon="6.10468">
        <ele>426.4</ele>
        <time>2020-05-04T12:51:24.119Z</time>
      </trkpt>
      <trkpt lat="46.2288" lon="6.10459">
        <ele>426.4</ele>
        <time>2020-05-04T12:51:25.546Z</time>
      </trkpt>
      <trkpt lat="46.22876" lon="6.10446">
        <ele>426.4</ele>
        <time>2020-05-04T12:51:27.664Z</time>
      </trkpt>
      <trkpt lat="46.22873" lon="6.10434">
        <ele>426.5</ele>
        <time>2020-05-04T12:51:29.760Z</time>
      </trkpt>
      <trkpt lat="46.22869" lon="6.10422">
        <ele>426.6</ele>
        <time>2020-05-04T12:51:31.923Z</time>
      </trkpt>
      <trkpt lat="46.22864" lon="6.10408">
        <ele>425.8</ele>
        <time>2020-05-04T12:51:32.975Z</time>
      </trkpt>
      <trkpt lat="46.2286" lon="6.10398">
        <ele>425.8</ele>
        <time>2020-05-04T12:51:34.780Z</time>
      </trkpt>
      <trkpt lat="46.22855" lon="6.10387">
        <ele>425.7</ele>
        <time>2020-05-04T12:51:36.271Z</time>
      </trkpt>
      <trkpt lat="46.22851" lon="6.1038">
        <ele>425.6</ele>
        <time>2020-05-04T12:51:37.190Z</time>
      </trkpt>
      <trkpt lat="46.22846" lon="6.10372">
        <ele>425.5</ele>
        <time>2020-05-04T12:51:38.293Z</time>
      </trkpt>
      <trkpt lat="46.22835" lon="6.10356">
        <ele>425.5</ele>
        <time>2020-05-04T12:51:41.554Z</time>
      </trkpt>
      <trkpt lat="46.22802" lon="6.10308">
        <ele>424.7</ele>
        <time>2020-05-04T12:51:48.371Z</time>
      </trkpt>
      <trkpt lat="46.22799" lon="6.10304">
        <ele>424.6</ele>
        <time>2020-05-04T12:51:48.900Z</time>
      </trkpt>
      <trkpt lat="46.22796" lon="6.10302">
        <ele>424.5</ele>
        <time>2020-05-04T12:51:49.307Z</time>
      </trkpt>
      <trkpt lat="46.22793" lon="6.10302">
        <ele>424.5</ele>
        <time>2020-05-04T12:51:49.882Z</time>
      </trkpt>
      <trkpt lat="46.2279" lon="6.10304">
        <ele>424.4</ele>
        <time>2020-05-04T12:51:50.257Z</time>
      </trkpt>
      <trkpt lat="46.22787" lon="6.10307">
        <ele>424.3</ele>
        <time>2020-05-04T12:51:50.711Z</time>
      </trkpt>
      <trkpt lat="46.22777" lon="6.10322">
        <ele>423.8</ele>
        <time>2020-05-04T12:51:52.488Z</time>
      </trkpt>
      <trkpt lat="46.22765" lon="6.10338">
        <ele>423.3</ele>
        <time>2020-05-04T12:51:54.416Z</time>
      </trkpt>
      <trkpt lat="46.22759" lon="6.10346">
        <ele>423.2</ele>
        <time>2020-05-04T12:51:55.766Z</time>
      </trkpt>
      <trkpt lat="46.22751" lon="6.10355">
        <ele>423.4</ele>
        <time>2020-05-04T12:51:58.343Z</time>
      </trkpt>
      <trkpt lat="46.2272" lon="6.10399">
        <ele>421.5</ele>
        <time>2020-05-04T12:52:03.085Z</time>
      </trkpt>
      <trkpt lat="46.22688" lon="6.10444">
        <ele>421.5</ele>
        <time>2020-05-04T12:52:12.630Z</time>
      </trkpt>
      <trkpt lat="46.22641" lon="6.10514">
        <ele>421.9</ele>
        <time>2020-05-04T12:52:27.770Z</time>
      </trkpt>
      <trkpt lat="46.22559" lon="6.10632">
        <ele>427.3</ele>
        <time>2020-05-04T12:53:10.045Z</time>
      </trkpt>
      <trkpt lat="46.22491" lon="6.10731">
        <ele>427.8</ele>
        <time>2020-05-04T12:53:31.654Z</time>
      </trkpt>
      <trkpt lat="46.22468" lon="6.10762">
        <ele>427.4</ele>
        <time>2020-05-04T12:53:36.346Z</time>
      </trkpt>
      <trkpt lat="46.22423" lon="6.10823">
        <ele>427.2</ele>
        <time>2020-05-04T12:53:48.941Z</time>
      </trkpt>
      <trkpt lat="46.22395" lon="6.10858">
        <ele>427.9</ele>
        <time>2020-05-04T12:53:58.406Z</time>
      </trkpt>
      <trkpt lat="46.22373" lon="6.10886">
        <ele>428.4</ele>
        <time>2020-05-04T12:54:05.815Z</time>
      </trkpt>
      <trkpt lat="46.22335" lon="6.1093">
        <ele>430.4</ele>
        <time>2020-05-04T12:54:22.441Z</time>
      </trkpt>
      <trkpt lat="46.2224" lon="6.11042">
        <ele>432.3</ele>
        <time>2020-05-04T12:54:52.951Z</time>
      </trkpt>
      <trkpt lat="46.22229" lon="6.11054">
        <ele>432.3</ele>
        <time>2020-05-04T12:54:55.776Z</time>
      </trkpt>
      <trkpt lat="46.22221" lon="6.11064">
        <ele>432.3</ele>
        <time>2020-05-04T12:54:58.009Z</time>
      </trkpt>
      <trkpt lat="46.22212" lon="6.11076">
        <ele>432.4</ele>
        <time>2020-05-04T12:55:00.818Z</time>
      </trkpt>
      <trkpt lat="46.22203" lon="6.11088">
        <ele>432.3</ele>
        <time>2020-05-04T12:55:02.803Z</time>
      </trkpt>
      <trkpt lat="46.22192" lon="6.11104">
        <ele>432.4</ele>
        <time>2020-05-04T12:55:06.374Z</time>
      </trkpt>
      <trkpt lat="46.2218" lon="6.11124">
        <ele>432.6</ele>
        <time>2020-05-04T12:55:10.662Z</time>
      </trkpt>
      <trkpt lat="46.22159" lon="6.11161">
        <ele>434.2</ele>
        <time>2020-05-04T12:55:22.893Z</time>
      </trkpt>
      <trkpt lat="46.22114" lon="6.11243">
        <ele>434.8</ele>
        <time>2020-05-04T12:55:39.591Z</time>
      </trkpt>
      <trkpt lat="46.22102" lon="6.11264">
        <ele>434.8</ele>
        <time>2020-05-04T12:55:43.577Z</time>
      </trkpt>
      <trkpt lat="46.22094" lon="6.11278">
        <ele>434.9</ele>
        <time>2020-05-04T12:55:46.578Z</time>
      </trkpt>
      <trkpt lat="46.22083" lon="6.11293">
        <ele>435</ele>
        <time>2020-05-04T12:55:49.902Z</time>
      </trkpt>
      <trkpt lat="46.22073" lon="6.11308">
        <ele>436.1</ele>
        <time>2020-05-04T12:55:56.344Z</time>
      </trkpt>
      <trkpt lat="46.22063" lon="6.11319">
        <ele>436.2</ele>
        <time>2020-05-04T12:55:59.243Z</time>
      </trkpt>
      <trkpt lat="46.22051" lon="6.11333">
        <ele>436.6</ele>
        <time>2020-05-04T12:56:03.589Z</time>
      </trkpt>
      <trkpt lat="46.22043" lon="6.11342">
        <ele>438</ele>
        <time>2020-05-04T12:56:11.779Z</time>
      </trkpt>
      <trkpt lat="46.22031" lon="6.11353">
        <ele>438.3</ele>
        <time>2020-05-04T12:56:15.602Z</time>
      </trkpt>
      <trkpt lat="46.21992" lon="6.11396">
        <ele>439.8</ele>
        <time>2020-05-04T12:56:30.113Z</time>
      </trkpt>
      <trkpt lat="46.21961" lon="6.11428">
        <ele>440.7</ele>
        <time>2020-05-04T12:56:40.443Z</time>
      </trkpt>
      <trkpt lat="46.21951" lon="6.11437">
        <ele>441.1</ele>
        <time>2020-05-04T12:56:44.116Z</time>
      </trkpt>
      <trkpt lat="46.21941" lon="6.11446">
        <ele>441.3</ele>
        <time>2020-05-04T12:56:47.065Z</time>
      </trkpt>
      <trkpt lat="46.21923" lon="6.11461">
        <ele>441.3</ele>
        <time>2020-05-04T12:56:51.528Z</time>
      </trkpt>
      <trkpt lat="46.21894" lon="6.1148">
        <ele>440.5</ele>
        <time>2020-05-04T12:56:55.671Z</time>
      </trkpt>
      <trkpt lat="46.2187" lon="6.11497">
        <ele>439.8</ele>
        <time>2020-05-04T12:56:59.067Z</time>
      </trkpt>
      <trkpt lat="46.21858" lon="6.11505">
        <ele>439.5</ele>
        <time>2020-05-04T12:57:00.846Z</time>
      </trkpt>
      <trkpt lat="46.21848" lon="6.11513">
        <ele>439.2</ele>
        <time>2020-05-04T12:57:02.485Z</time>
      </trkpt>
      <trkpt lat="46.21836" lon="6.11522">
        <ele>439.2</ele>
        <time>2020-05-04T12:57:05.172Z</time>
      </trkpt>
      <trkpt lat="46.21822" lon="6.11533">
        <ele>436.6</ele>
        <time>2020-05-04T12:57:06.816Z</time>
      </trkpt>
      <trkpt lat="46.21809" lon="6.11544">
        <ele>436.3</ele>
        <time>2020-05-04T12:57:08.837Z</time>
      </trkpt>
      <trkpt lat="46.21797" lon="6.11556">
        <ele>436.1</ele>
        <time>2020-05-04T12:57:11.026Z</time>
      </trkpt>
      <trkpt lat="46.21786" lon="6.11568">
        <ele>435.7</ele>
        <time>2020-05-04T12:57:12.776Z</time>
      </trkpt>
      <trkpt lat="46.2177" lon="6.11586">
        <ele>435.2</ele>
        <time>2020-05-04T12:57:15.523Z</time>
      </trkpt>
      <trkpt lat="46.21756" lon="6.11603">
        <ele>435</ele>
        <time>2020-05-04T12:57:18.279Z</time>
      </trkpt>
      <trkpt lat="46.21735" lon="6.11633">
        <ele>433.5</ele>
        <time>2020-05-04T12:57:21.283Z</time>
      </trkpt>
      <trkpt lat="46.21718" lon="6.11662">
        <ele>433.4</ele>
        <time>2020-05-04T12:57:26.656Z</time>
      </trkpt>
      <trkpt lat="46.21691" lon="6.11706">
        <ele>433</ele>
        <time>2020-05-04T12:57:33.137Z</time>
      </trkpt>
      <trkpt lat="46.21687" lon="6.11712">
        <ele>433</ele>
        <time>2020-05-04T12:57:34.330Z</time>
      </trkpt>
      <trkpt lat="46.21684" lon="6.11716">
        <ele>432.9</ele>
        <time>2020-05-04T12:57:34.927Z</time>
      </trkpt>
      <trkpt lat="46.21679" lon="6.1172">
        <ele>432.8</ele>
        <time>2020-05-04T12:57:35.660Z</time>
      </trkpt>
      <trkpt lat="46.21656" lon="6.11727">
        <ele>432.4</ele>
        <time>2020-05-04T12:57:38.997Z</time>
      </trkpt>
      <trkpt lat="46.21653" lon="6.11729">
        <ele>432.4</ele>
        <time>2020-05-04T12:57:39.718Z</time>
      </trkpt>
      <trkpt lat="46.21651" lon="6.11731">
        <ele>432.4</ele>
        <time>2020-05-04T12:57:40.418Z</time>
      </trkpt>
      <trkpt lat="46.21648" lon="6.11736">
        <ele>432.3</ele>
        <time>2020-05-04T12:57:40.906Z</time>
      </trkpt>
      <trkpt lat="46.21632" lon="6.11794">
        <ele>432.6</ele>
        <time>2020-05-04T12:57:50.881Z</time>
      </trkpt>
      <trkpt lat="46.21618" lon="6.11843">
        <ele>434.5</ele>
        <time>2020-05-04T12:58:04.610Z</time>
      </trkpt>
      <trkpt lat="46.21615" lon="6.11849">
        <ele>434.6</ele>
        <time>2020-05-04T12:58:05.895Z</time>
      </trkpt>
      <trkpt lat="46.21612" lon="6.11854">
        <ele>434.6</ele>
        <time>2020-05-04T12:58:06.913Z</time>
      </trkpt>
      <trkpt lat="46.21608" lon="6.11857">
        <ele>434.7</ele>
        <time>2020-05-04T12:58:08.015Z</time>
      </trkpt>
      <trkpt lat="46.21605" lon="6.11858">
        <ele>434.6</ele>
        <time>2020-05-04T12:58:08.398Z</time>
      </trkpt>
      <trkpt lat="46.21603" lon="6.11858">
        <ele>434.6</ele>
        <time>2020-05-04T12:58:08.995Z</time>
      </trkpt>
      <trkpt lat="46.21599" lon="6.11857">
        <ele>434.5</ele>
        <time>2020-05-04T12:58:09.442Z</time>
      </trkpt>
      <trkpt lat="46.21595" lon="6.11855">
        <ele>434.3</ele>
        <time>2020-05-04T12:58:09.847Z</time>
      </trkpt>
      <trkpt lat="46.21572" lon="6.11839">
        <ele>432.6</ele>
        <time>2020-05-04T12:58:12.224Z</time>
      </trkpt>
      <trkpt lat="46.21499" lon="6.11795">
        <ele>430.1</ele>
        <time>2020-05-04T12:58:21.844Z</time>
      </trkpt>
      <trkpt lat="46.21487" lon="6.11788">
        <ele>429.9</ele>
        <time>2020-05-04T12:58:23.790Z</time>
      </trkpt>
      <trkpt lat="46.2148" lon="6.11786">
        <ele>429.8</ele>
        <time>2020-05-04T12:58:24.832Z</time>
      </trkpt>
      <trkpt lat="46.21473" lon="6.11784">
        <ele>429.6</ele>
        <time>2020-05-04T12:58:25.728Z</time>
      </trkpt>
      <trkpt lat="46.21467" lon="6.11786">
        <ele>429.5</ele>
        <time>2020-05-04T12:58:26.650Z</time>
      </trkpt>
      <trkpt lat="46.21462" lon="6.11788">
        <ele>429.3</ele>
        <time>2020-05-04T12:58:27.326Z</time>
      </trkpt>
      <trkpt lat="46.21456" lon="6.11791">
        <ele>429.2</ele>
        <time>2020-05-04T12:58:28.167Z</time>
      </trkpt>
      <trkpt lat="46.21449" lon="6.11797">
        <ele>429</ele>
        <time>2020-05-04T12:58:29.261Z</time>
      </trkpt>
      <trkpt lat="46.21438" lon="6.11809">
        <ele>428.4</ele>
        <time>2020-05-04T12:58:30.828Z</time>
      </trkpt>
      <trkpt lat="46.21347" lon="6.11903">
        <ele>422.7</ele>
        <time>2020-05-04T12:58:42.195Z</time>
      </trkpt>
      <trkpt lat="46.213" lon="6.11949">
        <ele>422</ele>
        <time>2020-05-04T12:58:50.843Z</time>
      </trkpt>
      <trkpt lat="46.21282" lon="6.11964">
        <ele>422.4</ele>
        <time>2020-05-04T12:58:56.198Z</time>
      </trkpt>
      <trkpt lat="46.21268" lon="6.11976">
        <ele>422.9</ele>
        <time>2020-05-04T12:59:01.171Z</time>
      </trkpt>
      <trkpt lat="46.21251" lon="6.11989">
        <ele>423.9</ele>
        <time>2020-05-04T12:59:08.309Z</time>
      </trkpt>
      <trkpt lat="46.21234" lon="6.12">
        <ele>423.1</ele>
        <time>2020-05-04T12:59:10.371Z</time>
      </trkpt>
      <trkpt lat="46.21221" lon="6.12007">
        <ele>422.1</ele>
        <time>2020-05-04T12:59:11.703Z</time>
      </trkpt>
      <trkpt lat="46.2121" lon="6.12013">
        <ele>421.4</ele>
        <time>2020-05-04T12:59:12.873Z</time>
      </trkpt>
      <trkpt lat="46.21197" lon="6.12018">
        <ele>420.8</ele>
        <time>2020-05-04T12:59:14.295Z</time>
      </trkpt>
      <trkpt lat="46.21186" lon="6.1202">
        <ele>420.3</ele>
        <time>2020-05-04T12:59:15.535Z</time>
      </trkpt>
      <trkpt lat="46.21154" lon="6.12024">
        <ele>418</ele>
        <time>2020-05-04T12:59:18.634Z</time>
      </trkpt>
      <trkpt lat="46.21093" lon="6.12031">
        <ele>417.7</ele>
        <time>2020-05-04T12:59:30.865Z</time>
      </trkpt>
      <trkpt lat="46.21074" lon="6.12032">
        <ele>417</ele>
        <time>2020-05-04T12:59:33.124Z</time>
      </trkpt>
      <trkpt lat="46.21064" lon="6.12031">
        <ele>416.9</ele>
        <time>2020-05-04T12:59:34.604Z</time>
      </trkpt>
      <trkpt lat="46.21022" lon="6.12035">
        <ele>416.5</ele>
        <time>2020-05-04T12:59:41.385Z</time>
      </trkpt>
      <trkpt lat="46.20972" lon="6.12039">
        <ele>416.7</ele>
        <time>2020-05-04T12:59:52.435Z</time>
      </trkpt>
      <trkpt lat="46.20953" lon="6.12044">
        <ele>416.8</ele>
        <time>2020-05-04T12:59:56.748Z</time>
      </trkpt>
      <trkpt lat="46.20949" lon="6.12048">
        <ele>416.8</ele>
        <time>2020-05-04T12:59:57.749Z</time>
      </trkpt>
      <trkpt lat="46.20947" lon="6.12051">
        <ele>416.9</ele>
        <time>2020-05-04T12:59:58.614Z</time>
      </trkpt>
      <trkpt lat="46.20944" lon="6.12055">
        <ele>416.9</ele>
        <time>2020-05-04T12:59:59.490Z</time>
      </trkpt>
      <trkpt lat="46.20943" lon="6.12062">
        <ele>417</ele>
        <time>2020-05-04T13:00:00.822Z</time>
      </trkpt>
      <trkpt lat="46.20941" lon="6.12073">
        <ele>417.1</ele>
        <time>2020-05-04T13:00:02.685Z</time>
      </trkpt>
      <trkpt lat="46.20937" lon="6.12093">
        <ele>416.2</ele>
        <time>2020-05-04T13:00:03.996Z</time>
      </trkpt>
      <trkpt lat="46.2089" lon="6.12315">
        <ele>417.9</ele>
        <time>2020-05-04T13:00:41.907Z</time>
      </trkpt>
      <trkpt lat="46.20858" lon="6.12472">
        <ele>420.1</ele>
        <time>2020-05-04T13:01:11.342Z</time>
      </trkpt>
      <trkpt lat="46.20852" lon="6.12501">
        <ele>419.3</ele>
        <time>2020-05-04T13:01:13.693Z</time>
      </trkpt>
      <trkpt lat="46.20849" lon="6.12523">
        <ele>418.9</ele>
        <time>2020-05-04T13:01:15.682Z</time>
      </trkpt>
      <trkpt lat="46.20842" lon="6.12565">
        <ele>417.7</ele>
        <time>2020-05-04T13:01:19.090Z</time>
      </trkpt>
      <trkpt lat="46.20832" lon="6.12643">
        <ele>415.7</ele>
        <time>2020-05-04T13:01:25.481Z</time>
      </trkpt>
      <trkpt lat="46.20828" lon="6.12683">
        <ele>414.9</ele>
        <time>2020-05-04T13:01:29.044Z</time>
      </trkpt>
      <trkpt lat="46.20827" lon="6.1271">
        <ele>414.8</ele>
        <time>2020-05-04T13:01:32.699Z</time>
      </trkpt>
      <trkpt lat="46.20827" lon="6.12732">
        <ele>414.9</ele>
        <time>2020-05-04T13:01:36.193Z</time>
      </trkpt>
      <trkpt lat="46.20835" lon="6.12829">
        <ele>415.9</ele>
        <time>2020-05-04T13:01:52.789Z</time>
      </trkpt>
      <trkpt lat="46.20843" lon="6.12887">
        <ele>414.6</ele>
        <time>2020-05-04T13:01:57.841Z</time>
      </trkpt>
      <trkpt lat="46.20855" lon="6.12995">
        <ele>415.7</ele>
        <time>2020-05-04T13:02:16.413Z</time>
      </trkpt>
      <trkpt lat="46.20857" lon="6.13011">
        <ele>416.2</ele>
        <time>2020-05-04T13:02:20.452Z</time>
      </trkpt>
      <trkpt lat="46.20858" lon="6.13023">
        <ele>416.1</ele>
        <time>2020-05-04T13:02:21.730Z</time>
      </trkpt>
      <trkpt lat="46.20858" lon="6.13034">
        <ele>416</ele>
        <time>2020-05-04T13:02:22.873Z</time>
      </trkpt>
      <trkpt lat="46.20858" lon="6.13046">
        <ele>416</ele>
        <time>2020-05-04T13:02:24.689Z</time>
      </trkpt>
      <trkpt lat="46.20861" lon="6.13077">
        <ele>416</ele>
        <time>2020-05-04T13:02:29.253Z</time>
      </trkpt>
      <trkpt lat="46.20866" lon="6.13117">
        <ele>415.9</ele>
        <time>2020-05-04T13:02:34.967Z</time>
      </trkpt>
      <trkpt lat="46.20871" lon="6.13166">
        <ele>416</ele>
        <time>2020-05-04T13:02:42.440Z</time>
      </trkpt>
      <trkpt lat="46.20874" lon="6.13192">
        <ele>416.4</ele>
        <time>2020-05-04T13:02:47.344Z</time>
      </trkpt>
      <trkpt lat="46.20877" lon="6.13221">
        <ele>416.6</ele>
        <time>2020-05-04T13:02:51.993Z</time>
      </trkpt>
      <trkpt lat="46.20878" lon="6.13235">
        <ele>416.7</ele>
        <time>2020-05-04T13:02:54.364Z</time>
      </trkpt>
      <trkpt lat="46.20877" lon="6.13249">
        <ele>416.7</ele>
        <time>2020-05-04T13:02:56.442Z</time>
      </trkpt>
      <trkpt lat="46.20877" lon="6.13266">
        <ele>416.5</ele>
        <time>2020-05-04T13:02:58.145Z</time>
      </trkpt>
      <trkpt lat="46.20875" lon="6.13285">
        <ele>416.3</ele>
        <time>2020-05-04T13:03:00.118Z</time>
      </trkpt>
      <trkpt lat="46.20872" lon="6.13304">
        <ele>416.1</ele>
        <time>2020-05-04T13:03:02.007Z</time>
      </trkpt>
      <trkpt lat="46.20868" lon="6.13324">
        <ele>415.9</ele>
        <time>2020-05-04T13:03:04.204Z</time>
      </trkpt>
      <trkpt lat="46.20856" lon="6.13377">
        <ele>414.6</ele>
        <time>2020-05-04T13:03:08.915Z</time>
      </trkpt>
      <trkpt lat="46.20845" lon="6.13423">
        <ele>413.4</ele>
        <time>2020-05-04T13:03:12.871Z</time>
      </trkpt>
      <trkpt lat="46.20832" lon="6.13478">
        <ele>411.8</ele>
        <time>2020-05-04T13:03:17.338Z</time>
      </trkpt>
      <trkpt lat="46.2083" lon="6.13492">
        <ele>411.4</ele>
        <time>2020-05-04T13:03:18.470Z</time>
      </trkpt>
      <trkpt lat="46.2083" lon="6.135">
        <ele>410.7</ele>
        <time>2020-05-04T13:03:19.055Z</time>
      </trkpt>
      <trkpt lat="46.20832" lon="6.13509">
        <ele>410.3</ele>
        <time>2020-05-04T13:03:19.621Z</time>
      </trkpt>
      <trkpt lat="46.2084" lon="6.13544">
        <ele>407.6</ele>
        <time>2020-05-04T13:03:22.164Z</time>
      </trkpt>
      <trkpt lat="46.20906" lon="6.13819">
        <ele>400.6</ele>
        <time>2020-05-04T13:03:46.056Z</time>
      </trkpt>
      <trkpt lat="46.20928" lon="6.13912">
        <ele>398.3</ele>
        <time>2020-05-04T13:03:54.185Z</time>
      </trkpt>
      <trkpt lat="46.20929" lon="6.13915">
        <ele>398.3</ele>
        <time>2020-05-04T13:03:54.745Z</time>
      </trkpt>
      <trkpt lat="46.20927" lon="6.13921">
        <ele>396.9</ele>
        <time>2020-05-04T13:03:55.154Z</time>
      </trkpt>
      <trkpt lat="46.20925" lon="6.13927">
        <ele>396.8</ele>
        <time>2020-05-04T13:03:55.755Z</time>
      </trkpt>
      <trkpt lat="46.20895" lon="6.1398">
        <ele>392.1</ele>
        <time>2020-05-04T13:04:00.436Z</time>
      </trkpt>
      <trkpt lat="46.20861" lon="6.14041">
        <ele>390.2</ele>
        <time>2020-05-04T13:04:06.847Z</time>
      </trkpt>
      <trkpt lat="46.20854" lon="6.14052">
        <ele>390.1</ele>
        <time>2020-05-04T13:04:08.482Z</time>
      </trkpt>
      <trkpt lat="46.20852" lon="6.14061">
        <ele>390</ele>
        <time>2020-05-04T13:04:09.435Z</time>
      </trkpt>
      <trkpt lat="46.20849" lon="6.14068">
        <ele>389.9</ele>
        <time>2020-05-04T13:04:10.274Z</time>
      </trkpt>
      <trkpt lat="46.20847" lon="6.14082">
        <ele>389.6</ele>
        <time>2020-05-04T13:04:11.481Z</time>
      </trkpt>
      <trkpt lat="46.20842" lon="6.14126">
        <ele>390.7</ele>
        <time>2020-05-04T13:04:21.221Z</time>
      </trkpt>
      <trkpt lat="46.20829" lon="6.14204">
        <ele>390.2</ele>
        <time>2020-05-04T13:04:30.061Z</time>
      </trkpt>
      <trkpt lat="46.20827" lon="6.14218">
        <ele>390.1</ele>
        <time>2020-05-04T13:04:31.696Z</time>
      </trkpt>
      <trkpt lat="46.20825" lon="6.14226">
        <ele>390</ele>
        <time>2020-05-04T13:04:32.541Z</time>
      </trkpt>
      <trkpt lat="46.20822" lon="6.14233">
        <ele>389.9</ele>
        <time>2020-05-04T13:04:33.397Z</time>
      </trkpt>
      <trkpt lat="46.20816" lon="6.14238">
        <ele>390</ele>
        <time>2020-05-04T13:04:35.026Z</time>
      </trkpt>
      <trkpt lat="46.2081" lon="6.14241">
        <ele>390.1</ele>
        <time>2020-05-04T13:04:36.660Z</time>
      </trkpt>
      <trkpt lat="46.20804" lon="6.14242">
        <ele>390.3</ele>
        <time>2020-05-04T13:04:38.420Z</time>
      </trkpt>
      <trkpt lat="46.20795" lon="6.1424">
        <ele>390.6</ele>
        <time>2020-05-04T13:04:41.139Z</time>
      </trkpt>
      <trkpt lat="46.20787" lon="6.14237">
        <ele>390.8</ele>
        <time>2020-05-04T13:04:43.434Z</time>
      </trkpt>
      <trkpt lat="46.20776" lon="6.1423">
        <ele>391</ele>
        <time>2020-05-04T13:04:46.579Z</time>
      </trkpt>
      <trkpt lat="46.20772" lon="6.14225">
        <ele>391</ele>
        <time>2020-05-04T13:04:47.599Z</time>
      </trkpt>
      <trkpt lat="46.20769" lon="6.14221">
        <ele>391</ele>
        <time>2020-05-04T13:04:48.475Z</time>
      </trkpt>
      <trkpt lat="46.20766" lon="6.14218">
        <ele>391</ele>
        <time>2020-05-04T13:04:49.246Z</time>
      </trkpt>
      <trkpt lat="46.20761" lon="6.14215">
        <ele>391</ele>
        <time>2020-05-04T13:04:50.403Z</time>
      </trkpt>
      <trkpt lat="46.2072" lon="6.14193">
        <ele>390.8</ele>
        <time>2020-05-04T13:04:59.213Z</time>
      </trkpt>
      <trkpt lat="46.20717" lon="6.14192">
        <ele>390.8</ele>
        <time>2020-05-04T13:04:59.832Z</time>
      </trkpt>
      <trkpt lat="46.20715" lon="6.14194">
        <ele>390.8</ele>
        <time>2020-05-04T13:05:00.328Z</time>
      </trkpt>
      <trkpt lat="46.20712" lon="6.14196">
        <ele>390.8</ele>
        <time>2020-05-04T13:05:01.001Z</time>
      </trkpt>
      <trkpt lat="46.20711" lon="6.14198">
        <ele>390.8</ele>
        <time>2020-05-04T13:05:01.467Z</time>
      </trkpt>
      <trkpt lat="46.20707" lon="6.142">
        <ele>390.9</ele>
        <time>2020-05-04T13:05:02.509Z</time>
      </trkpt>
      <trkpt lat="46.20704" lon="6.14204">
        <ele>390.9</ele>
        <time>2020-05-04T13:05:03.424Z</time>
      </trkpt>
      <trkpt lat="46.20696" lon="6.14211">
        <ele>391</ele>
        <time>2020-05-04T13:05:05.663Z</time>
      </trkpt>
      <trkpt lat="46.20668" lon="6.14231">
        <ele>391.4</ele>
        <time>2020-05-04T13:05:13.167Z</time>
      </trkpt>
      <trkpt lat="46.20566" lon="6.143">
        <ele>380.9</ele>
        <time>2020-05-04T13:05:24.192Z</time>
      </trkpt>
      <trkpt lat="46.20563" lon="6.14301">
        <ele>380.8</ele>
        <time>2020-05-04T13:05:24.655Z</time>
      </trkpt>
      <trkpt lat="46.20559" lon="6.14301">
        <ele>380.7</ele>
        <time>2020-05-04T13:05:25.082Z</time>
      </trkpt>
      <trkpt lat="46.20554" lon="6.14299">
        <ele>380.4</ele>
        <time>2020-05-04T13:05:25.572Z</time>
      </trkpt>
      <trkpt lat="46.2054" lon="6.14284">
        <ele>379.6</ele>
        <time>2020-05-04T13:05:27.454Z</time>
      </trkpt>
      <trkpt lat="46.20536" lon="6.14281">
        <ele>379.3</ele>
        <time>2020-05-04T13:05:27.894Z</time>
      </trkpt>
      <trkpt lat="46.20532" lon="6.1428">
        <ele>379.1</ele>
        <time>2020-05-04T13:05:28.298Z</time>
      </trkpt>
      <trkpt lat="46.20528" lon="6.14281">
        <ele>378.9</ele>
        <time>2020-05-04T13:05:28.789Z</time>
      </trkpt>
      <trkpt lat="46.2052" lon="6.14285">
        <ele>378.6</ele>
        <time>2020-05-04T13:05:29.784Z</time>
      </trkpt>
      <trkpt lat="46.20456" lon="6.14315">
        <ele>378.3</ele>
        <time>2020-05-04T13:05:43.166Z</time>
      </trkpt>
      <trkpt lat="46.20452" lon="6.14316">
        <ele>378.4</ele>
        <time>2020-05-04T13:05:44.215Z</time>
      </trkpt>
      <trkpt lat="46.20449" lon="6.14314">
        <ele>378.4</ele>
        <time>2020-05-04T13:05:44.967Z</time>
      </trkpt>
      <trkpt lat="46.20445" lon="6.1431">
        <ele>378.5</ele>
        <time>2020-05-04T13:05:46.107Z</time>
      </trkpt>
      <trkpt lat="46.20443" lon="6.14307">
        <ele>378.4</ele>
        <time>2020-05-04T13:05:46.606Z</time>
      </trkpt>
      <trkpt lat="46.20441" lon="6.143">
        <ele>378.3</ele>
        <time>2020-05-04T13:05:47.264Z</time>
      </trkpt>
      <trkpt lat="46.20423" lon="6.14208">
        <ele>375.7</ele>
        <time>2020-05-04T13:05:54.751Z</time>
      </trkpt>
      <trkpt lat="46.20421" lon="6.14202">
        <ele>375.6</ele>
        <time>2020-05-04T13:05:55.399Z</time>
      </trkpt>
      <trkpt lat="46.2042" lon="6.14198">
        <ele>375.5</ele>
        <time>2020-05-04T13:05:55.774Z</time>
      </trkpt>
      <trkpt lat="46.20418" lon="6.14196">
        <ele>375.5</ele>
        <time>2020-05-04T13:05:56.310Z</time>
      </trkpt>
      <trkpt lat="46.20414" lon="6.14194">
        <ele>378.9</ele>
        <time>2020-05-04T13:05:59.343Z</time>
      </trkpt>
      <trkpt lat="46.20411" lon="6.14195">
        <ele>379</ele>
        <time>2020-05-04T13:06:00.282Z</time>
      </trkpt>
      <trkpt lat="46.20405" lon="6.14197">
        <ele>379.3</ele>
        <time>2020-05-04T13:06:02.503Z</time>
      </trkpt>
      <trkpt lat="46.20401" lon="6.142">
        <ele>379.7</ele>
        <time>2020-05-04T13:06:04.779Z</time>
      </trkpt>
      <trkpt lat="46.20396" lon="6.14204">
        <ele>380</ele>
        <time>2020-05-04T13:06:06.943Z</time>
      </trkpt>
      <trkpt lat="46.2038" lon="6.14223">
        <ele>381.1</ele>
        <time>2020-05-04T13:06:14.908Z</time>
      </trkpt>
      <trkpt lat="46.20376" lon="6.14228">
        <ele>381.4</ele>
        <time>2020-05-04T13:06:17.013Z</time>
      </trkpt>
      <trkpt lat="46.20373" lon="6.14233">
        <ele>381.6</ele>
        <time>2020-05-04T13:06:18.550Z</time>
      </trkpt>
      <trkpt lat="46.20372" lon="6.14238">
        <ele>381.7</ele>
        <time>2020-05-04T13:06:19.609Z</time>
      </trkpt>
      <trkpt lat="46.20371" lon="6.14244">
        <ele>381.8</ele>
        <time>2020-05-04T13:06:20.681Z</time>
      </trkpt>
      <trkpt lat="46.2037" lon="6.14249">
        <ele>381.9</ele>
        <time>2020-05-04T13:06:21.800Z</time>
      </trkpt>
      <trkpt lat="46.20371" lon="6.14256">
        <ele>383.9</ele>
        <time>2020-05-04T13:06:25.840Z</time>
      </trkpt>
      <trkpt lat="46.20375" lon="6.14282">
        <ele>384.2</ele>
        <time>2020-05-04T13:06:30.389Z</time>
      </trkpt>
      <trkpt lat="46.20387" lon="6.14354">
        <ele>388.1</ele>
        <time>2020-05-04T13:06:53.454Z</time>
      </trkpt>
      <trkpt lat="46.20388" lon="6.14362">
        <ele>388.4</ele>
        <time>2020-05-04T13:06:55.651Z</time>
      </trkpt>
      <trkpt lat="46.20388" lon="6.1437">
        <ele>388.8</ele>
        <time>2020-05-04T13:06:58.065Z</time>
      </trkpt>
      <trkpt lat="46.20388" lon="6.14376">
        <ele>389.1</ele>
        <time>2020-05-04T13:06:59.881Z</time>
      </trkpt>
      <trkpt lat="46.20387" lon="6.14384">
        <ele>389.4</ele>
        <time>2020-05-04T13:07:01.973Z</time>
      </trkpt>
      <trkpt lat="46.20383" lon="6.144">
        <ele>390</ele>
        <time>2020-05-04T13:07:06.403Z</time>
      </trkpt>
      <trkpt lat="46.20357" lon="6.14511">
        <ele>392.4</ele>
        <time>2020-05-04T13:07:30.069Z</time>
      </trkpt>
      <trkpt lat="46.20352" lon="6.14529">
        <ele>392.1</ele>
        <time>2020-05-04T13:07:31.897Z</time>
      </trkpt>
      <trkpt lat="46.20349" lon="6.14543">
        <ele>391.9</ele>
        <time>2020-05-04T13:07:33.269Z</time>
      </trkpt>
      <trkpt lat="46.20346" lon="6.14557">
        <ele>391.8</ele>
        <time>2020-05-04T13:07:34.902Z</time>
      </trkpt>
      <trkpt lat="46.20343" lon="6.14574">
        <ele>391.8</ele>
        <time>2020-05-04T13:07:37.545Z</time>
      </trkpt>
      <trkpt lat="46.2034" lon="6.14595">
        <ele>390.7</ele>
        <time>2020-05-04T13:07:38.987Z</time>
      </trkpt>
      <trkpt lat="46.20338" lon="6.14608">
        <ele>390.1</ele>
        <time>2020-05-04T13:07:39.863Z</time>
      </trkpt>
      <trkpt lat="46.20326" lon="6.14656">
        <ele>390.8</ele>
        <time>2020-05-04T13:07:49.159Z</time>
      </trkpt>
      <trkpt lat="46.20297" lon="6.14768">
        <ele>389.9</ele>
        <time>2020-05-04T13:08:02.014Z</time>
      </trkpt>
      <trkpt lat="46.20292" lon="6.14787">
        <ele>389.8</ele>
        <time>2020-05-04T13:08:04.715Z</time>
      </trkpt>
      <trkpt lat="46.20289" lon="6.14801">
        <ele>389.7</ele>
        <time>2020-05-04T13:08:06.377Z</time>
      </trkpt>
      <trkpt lat="46.2028" lon="6.14841">
        <ele>389.2</ele>
        <time>2020-05-04T13:08:10.517Z</time>
      </trkpt>
      <trkpt lat="46.20251" lon="6.14981">
        <ele>388.5</ele>
        <time>2020-05-04T13:08:30.051Z</time>
      </trkpt>
      <trkpt lat="46.20243" lon="6.15016">
        <ele>388.5</ele>
        <time>2020-05-04T13:08:35.472Z</time>
      </trkpt>
      <trkpt lat="46.20236" lon="6.15046">
        <ele>388.3</ele>
        <time>2020-05-04T13:08:38.901Z</time>
      </trkpt>
      <trkpt lat="46.20227" lon="6.15078">
        <ele>387.6</ele>
        <time>2020-05-04T13:08:41.907Z</time>
      </trkpt>
      <trkpt lat="46.2021" lon="6.15137">
        <ele>387.4</ele>
        <time>2020-05-04T13:08:50.761Z</time>
      </trkpt>
      <trkpt lat="46.20198" lon="6.15178">
        <ele>386.7</ele>
        <time>2020-05-04T13:08:54.972Z</time>
      </trkpt>
      <trkpt lat="46.2019" lon="6.15196">
        <ele>386.6</ele>
        <time>2020-05-04T13:08:57.767Z</time>
      </trkpt>
      <trkpt lat="46.20185" lon="6.15206">
        <ele>386.5</ele>
        <time>2020-05-04T13:08:59.085Z</time>
      </trkpt>
      <trkpt lat="46.20182" lon="6.15214">
        <ele>386.4</ele>
        <time>2020-05-04T13:09:00.003Z</time>
      </trkpt>
      <trkpt lat="46.20179" lon="6.15223">
        <ele>386.3</ele>
        <time>2020-05-04T13:09:00.985Z</time>
      </trkpt>
      <trkpt lat="46.20167" lon="6.15287">
        <ele>385.7</ele>
        <time>2020-05-04T13:09:07.916Z</time>
      </trkpt>
      <trkpt lat="46.2016" lon="6.15313">
        <ele>387.9</ele>
        <time>2020-05-04T13:09:20.208Z</time>
      </trkpt>
      <trkpt lat="46.2015" lon="6.1536">
        <ele>389.5</ele>
        <time>2020-05-04T13:09:32.591Z</time>
      </trkpt>
    </trkseg>
  </trk>
</gpx>